sensor_id;sensor_type;location;lat;lon;timestamp;P1;durP1;ratioP1;P2;durP2;ratioP2
44046;SDS011;29713;-33.888;151.150;2023-03-14T00:02:26;9.82;;;2.35;;
44046;SDS011;29713;-33.888;151.150;2023-03-14T00:04:56;12.90;;;3.08;;
44046;SDS011;29713;-33.888;151.150;2023-03-14T00:07:23;7.15;;;2.30;;
44046;SDS011;29713;-33.888;151.150;2023-03-14T00:09:51;7.95;;;1.95;;
44046;SDS011;29713;-33.888;151.150;2023-03-14T00:12:18;6.43;;;2.10;;
44046;SDS011;29713;-33.888;151.150;2023-03-14T00:14:45;6.28;;;1.83;;
44046;SDS011;29713;-33.888;151.150;2023-03-14T00:17:13;7.63;;;2.35;;
44046;SDS011;29713;-33.888;151.150;2023-03-14T00:19:40;9.27;;;2.25;;
44046;SDS011;29713;-33.888;151.150;2023-03-14T00:22:07;12.50;;;2.92;;
44046;SDS011;29713;-33.888;151.150;2023-03-14T00:24:34;10.18;;;2.63;;
44046;SDS011;29713;-33.888;151.150;2023-03-14T00:27:02;9.35;;;2.17;;
44046;SDS011;29713;-33.888;151.150;2023-03-14T00:29:29;10.70;;;2.30;;
44046;SDS011;29713;-33.888;151.150;2023-03-14T00:31:56;8.93;;;2.60;;
44046;SDS011;29713;-33.888;151.150;2023-03-14T00:34:27;10.00;;;2.75;;
44046;SDS011;29713;-33.888;151.150;2023-03-14T00:36:55;10.40;;;2.72;;
44046;SDS011;29713;-33.888;151.150;2023-03-14T00:39:23;10.05;;;2.53;;
44046;SDS011;29713;-33.888;151.150;2023-03-14T00:41:50;8.48;;;2.30;;
44046;SDS011;29713;-33.888;151.150;2023-03-14T00:44:18;9.95;;;2.33;;
44046;SDS011;29713;-33.888;151.150;2023-03-14T00:46:45;14.57;;;3.05;;
44046;SDS011;29713;-33.888;151.150;2023-03-14T00:49:12;10.73;;;2.55;;
44046;SDS011;29713;-33.888;151.150;2023-03-14T00:51:40;10.98;;;2.75;;
44046;SDS011;29713;-33.888;151.150;2023-03-14T00:54:07;9.57;;;2.25;;
44046;SDS011;29713;-33.888;151.150;2023-03-14T00:56:34;9.70;;;2.30;;
44046;SDS011;29713;-33.888;151.150;2023-03-14T00:59:02;8.88;;;2.03;;
44046;SDS011;29713;-33.888;151.150;2023-03-14T01:01:29;9.93;;;2.92;;
44046;SDS011;29713;-33.888;151.150;2023-03-14T01:03:56;11.98;;;2.88;;
44046;SDS011;29713;-33.888;151.150;2023-03-14T01:06:25;12.38;;;2.38;;
44046;SDS011;29713;-33.888;151.150;2023-03-14T01:08:54;11.48;;;2.97;;
44046;SDS011;29713;-33.888;151.150;2023-03-14T01:11:28;14.18;;;3.40;;
44046;SDS011;29713;-33.888;151.150;2023-03-14T01:14:00;8.13;;;2.42;;
44046;SDS011;29713;-33.888;151.150;2023-03-14T01:16:30;11.93;;;3.40;;
44046;SDS011;29713;-33.888;151.150;2023-03-14T01:18:59;15.73;;;3.53;;
44046;SDS011;29713;-33.888;151.150;2023-03-14T01:21:28;10.23;;;3.20;;
44046;SDS011;29713;-33.888;151.150;2023-03-14T01:24:01;11.73;;;2.92;;
44046;SDS011;29713;-33.888;151.150;2023-03-14T01:26:32;14.48;;;3.70;;
44046;SDS011;29713;-33.888;151.150;2023-03-14T01:29:00;18.48;;;3.67;;
44046;SDS011;29713;-33.888;151.150;2023-03-14T01:31:29;17.80;;;4.10;;
44046;SDS011;29713;-33.888;151.150;2023-03-14T01:33:56;13.55;;;3.30;;
44046;SDS011;29713;-33.888;151.150;2023-03-14T01:36:24;14.43;;;3.13;;
44046;SDS011;29713;-33.888;151.150;2023-03-14T01:38:51;10.23;;;2.83;;
44046;SDS011;29713;-33.888;151.150;2023-03-14T01:41:20;11.90;;;3.30;;
44046;SDS011;29713;-33.888;151.150;2023-03-14T01:43:49;12.68;;;2.97;;
44046;SDS011;29713;-33.888;151.150;2023-03-14T01:48:56;16.25;;;3.25;;
44046;SDS011;29713;-33.888;151.150;2023-03-14T01:54:04;11.40;;;2.78;;
44046;SDS011;29713;-33.888;151.150;2023-03-14T01:57:06;13.15;;;2.90;;
44046;SDS011;29713;-33.888;151.150;2023-03-14T01:59:43;14.75;;;2.88;;
44046;SDS011;29713;-33.888;151.150;2023-03-14T02:02:36;12.93;;;3.20;;
44046;SDS011;29713;-33.888;151.150;2023-03-14T02:05:09;13.00;;;2.90;;
44046;SDS011;29713;-33.888;151.150;2023-03-14T02:07:56;7.18;;;2.38;;
44046;SDS011;29713;-33.888;151.150;2023-03-14T02:10:25;15.02;;;3.17;;
44046;SDS011;29713;-33.888;151.150;2023-03-14T02:12:55;10.45;;;2.50;;
44046;SDS011;29713;-33.888;151.150;2023-03-14T02:15:25;10.23;;;2.75;;
44046;SDS011;29713;-33.888;151.150;2023-03-14T02:17:53;10.07;;;2.30;;
44046;SDS011;29713;-33.888;151.150;2023-03-14T02:23:12;12.38;;;2.75;;
44046;SDS011;29713;-33.888;151.150;2023-03-14T02:25:48;13.13;;;2.83;;
44046;SDS011;29713;-33.888;151.150;2023-03-14T02:28:31;12.45;;;2.60;;
44046;SDS011;29713;-33.888;151.150;2023-03-14T02:30:58;10.45;;;2.58;;
44046;SDS011;29713;-33.888;151.150;2023-03-14T02:33:26;10.07;;;2.72;;
44046;SDS011;29713;-33.888;151.150;2023-03-14T02:35:58;5.38;;;2.03;;
44046;SDS011;29713;-33.888;151.150;2023-03-14T02:40:57;7.50;;;2.95;;
44046;SDS011;29713;-33.888;151.150;2023-03-14T02:43:25;10.35;;;3.00;;
44046;SDS011;29713;-33.888;151.150;2023-03-14T02:45:52;13.50;;;3.15;;
44046;SDS011;29713;-33.888;151.150;2023-03-14T02:48:25;7.93;;;2.58;;
44046;SDS011;29713;-33.888;151.150;2023-03-14T02:50:55;10.13;;;2.50;;
44046;SDS011;29713;-33.888;151.150;2023-03-14T02:53:26;8.95;;;2.50;;
44046;SDS011;29713;-33.888;151.150;2023-03-14T02:55:55;9.13;;;2.60;;
44046;SDS011;29713;-33.888;151.150;2023-03-14T02:58:22;8.80;;;2.22;;
44046;SDS011;29713;-33.888;151.150;2023-03-14T03:00:50;12.00;;;2.42;;
44046;SDS011;29713;-33.888;151.150;2023-03-14T03:03:19;5.55;;;1.80;;
44046;SDS011;29713;-33.888;151.150;2023-03-14T03:05:50;6.28;;;2.50;;
44046;SDS011;29713;-33.888;151.150;2023-03-14T03:08:19;12.23;;;2.85;;
44046;SDS011;29713;-33.888;151.150;2023-03-14T03:10:48;12.25;;;2.75;;
44046;SDS011;29713;-33.888;151.150;2023-03-14T03:13:15;9.10;;;2.75;;
44046;SDS011;29713;-33.888;151.150;2023-03-14T03:15:46;11.30;;;3.20;;
44046;SDS011;29713;-33.888;151.150;2023-03-14T03:18:14;11.85;;;3.85;;
44046;SDS011;29713;-33.888;151.150;2023-03-14T03:20:41;16.95;;;3.80;;
44046;SDS011;29713;-33.888;151.150;2023-03-14T03:23:08;14.05;;;3.40;;
44046;SDS011;29713;-33.888;151.150;2023-03-14T03:25:36;10.65;;;3.33;;
44046;SDS011;29713;-33.888;151.150;2023-03-14T03:28:03;8.98;;;3.05;;
44046;SDS011;29713;-33.888;151.150;2023-03-14T03:30:36;8.25;;;3.05;;
44046;SDS011;29713;-33.888;151.150;2023-03-14T03:33:04;11.38;;;3.03;;
44046;SDS011;29713;-33.888;151.150;2023-03-14T03:35:32;9.57;;;2.90;;
44046;SDS011;29713;-33.888;151.150;2023-03-14T03:37:59;10.55;;;2.85;;
44046;SDS011;29713;-33.888;151.150;2023-03-14T03:40:26;10.98;;;2.50;;
44046;SDS011;29713;-33.888;151.150;2023-03-14T03:42:54;9.57;;;2.40;;
44046;SDS011;29713;-33.888;151.150;2023-03-14T03:45:21;8.02;;;2.53;;
44046;SDS011;29713;-33.888;151.150;2023-03-14T03:47:48;6.90;;;2.10;;
44046;SDS011;29713;-33.888;151.150;2023-03-14T03:50:16;6.00;;;2.28;;
44046;SDS011;29713;-33.888;151.150;2023-03-14T03:52:43;9.43;;;2.28;;
44046;SDS011;29713;-33.888;151.150;2023-03-14T03:55:10;7.95;;;2.45;;
44046;SDS011;29713;-33.888;151.150;2023-03-14T03:57:38;11.50;;;2.45;;
44046;SDS011;29713;-33.888;151.150;2023-03-14T04:00:05;10.20;;;2.45;;
44046;SDS011;29713;-33.888;151.150;2023-03-14T04:02:38;9.45;;;2.50;;
44046;SDS011;29713;-33.888;151.150;2023-03-14T04:05:05;8.40;;;2.33;;
44046;SDS011;29713;-33.888;151.150;2023-03-14T04:07:33;8.20;;;1.88;;
44046;SDS011;29713;-33.888;151.150;2023-03-14T04:10:00;8.07;;;2.30;;
44046;SDS011;29713;-33.888;151.150;2023-03-14T04:12:28;7.82;;;2.20;;
44046;SDS011;29713;-33.888;151.150;2023-03-14T04:14:55;5.95;;;2.55;;
44046;SDS011;29713;-33.888;151.150;2023-03-14T04:17:22;7.32;;;2.45;;
44046;SDS011;29713;-33.888;151.150;2023-03-14T04:19:50;4.45;;;2.30;;
44046;SDS011;29713;-33.888;151.150;2023-03-14T04:22:19;8.15;;;2.72;;
44046;SDS011;29713;-33.888;151.150;2023-03-14T04:24:47;6.15;;;2.08;;
44046;SDS011;29713;-33.888;151.150;2023-03-14T04:27:14;9.27;;;2.50;;
44046;SDS011;29713;-33.888;151.150;2023-03-14T04:29:42;7.00;;;2.10;;
44046;SDS011;29713;-33.888;151.150;2023-03-14T04:32:09;8.38;;;2.30;;
44046;SDS011;29713;-33.888;151.150;2023-03-14T04:34:36;8.23;;;2.60;;
44046;SDS011;29713;-33.888;151.150;2023-03-14T04:37:04;6.45;;;2.30;;
44046;SDS011;29713;-33.888;151.150;2023-03-14T04:39:31;7.43;;;2.22;;
44046;SDS011;29713;-33.888;151.150;2023-03-14T04:41:59;8.40;;;2.63;;
44046;SDS011;29713;-33.888;151.150;2023-03-14T04:44:26;8.80;;;2.50;;
44046;SDS011;29713;-33.888;151.150;2023-03-14T04:46:54;7.78;;;2.22;;
44046;SDS011;29713;-33.888;151.150;2023-03-14T04:49:21;12.43;;;2.33;;
44046;SDS011;29713;-33.888;151.150;2023-03-14T04:51:48;10.77;;;2.42;;
44046;SDS011;29713;-33.888;151.150;2023-03-14T04:54:18;11.35;;;2.33;;
44046;SDS011;29713;-33.888;151.150;2023-03-14T04:56:46;6.65;;;2.13;;
44046;SDS011;29713;-33.888;151.150;2023-03-14T04:59:13;9.18;;;2.60;;
44046;SDS011;29713;-33.888;151.150;2023-03-14T05:01:40;11.43;;;2.63;;
44046;SDS011;29713;-33.888;151.150;2023-03-14T05:04:08;8.85;;;2.78;;
44046;SDS011;29713;-33.888;151.150;2023-03-14T05:06:35;7.45;;;2.50;;
44046;SDS011;29713;-33.888;151.150;2023-03-14T05:09:03;7.03;;;2.72;;
44046;SDS011;29713;-33.888;151.150;2023-03-14T05:11:30;12.15;;;2.67;;
44046;SDS011;29713;-33.888;151.150;2023-03-14T05:13:58;11.63;;;2.83;;
44046;SDS011;29713;-33.888;151.150;2023-03-14T05:16:25;8.57;;;2.60;;
44046;SDS011;29713;-33.888;151.150;2023-03-14T05:18:52;9.85;;;2.88;;
44046;SDS011;29713;-33.888;151.150;2023-03-14T05:21:20;10.27;;;2.33;;
44046;SDS011;29713;-33.888;151.150;2023-03-14T05:23:47;10.13;;;2.40;;
44046;SDS011;29713;-33.888;151.150;2023-03-14T05:26:15;9.40;;;2.78;;
44046;SDS011;29713;-33.888;151.150;2023-03-14T05:28:42;11.75;;;2.58;;
44046;SDS011;29713;-33.888;151.150;2023-03-14T05:31:10;10.52;;;2.85;;
44046;SDS011;29713;-33.888;151.150;2023-03-14T05:33:37;11.85;;;2.85;;
44046;SDS011;29713;-33.888;151.150;2023-03-14T05:36:05;13.07;;;2.97;;
44046;SDS011;29713;-33.888;151.150;2023-03-14T05:38:32;14.57;;;2.97;;
44046;SDS011;29713;-33.888;151.150;2023-03-14T05:41:00;10.07;;;2.55;;
44046;SDS011;29713;-33.888;151.150;2023-03-14T05:43:27;15.57;;;3.88;;
44046;SDS011;29713;-33.888;151.150;2023-03-14T05:45:54;18.58;;;3.58;;
44046;SDS011;29713;-33.888;151.150;2023-03-14T05:48:22;10.93;;;2.95;;
44046;SDS011;29713;-33.888;151.150;2023-03-14T05:50:54;15.55;;;2.90;;
44046;SDS011;29713;-33.888;151.150;2023-03-14T05:53:22;10.95;;;2.70;;
44046;SDS011;29713;-33.888;151.150;2023-03-14T05:55:52;14.30;;;3.38;;
44046;SDS011;29713;-33.888;151.150;2023-03-14T05:58:20;8.77;;;2.88;;
44046;SDS011;29713;-33.888;151.150;2023-03-14T06:00:48;11.35;;;2.88;;
44046;SDS011;29713;-33.888;151.150;2023-03-14T06:03:16;11.05;;;2.92;;
44046;SDS011;29713;-33.888;151.150;2023-03-14T06:05:43;10.18;;;2.78;;
44046;SDS011;29713;-33.888;151.150;2023-03-14T06:08:10;13.57;;;2.75;;
44046;SDS011;29713;-33.888;151.150;2023-03-14T06:10:38;13.02;;;3.60;;
44046;SDS011;29713;-33.888;151.150;2023-03-14T06:13:05;9.77;;;2.63;;
44046;SDS011;29713;-33.888;151.150;2023-03-14T06:15:33;14.68;;;2.95;;
44046;SDS011;29713;-33.888;151.150;2023-03-14T06:18:01;12.50;;;2.83;;
44046;SDS011;29713;-33.888;151.150;2023-03-14T06:20:29;9.85;;;3.05;;
44046;SDS011;29713;-33.888;151.150;2023-03-14T06:22:56;9.02;;;2.47;;
44046;SDS011;29713;-33.888;151.150;2023-03-14T06:25:24;8.85;;;2.28;;
44046;SDS011;29713;-33.888;151.150;2023-03-14T06:27:51;12.18;;;2.50;;
44046;SDS011;29713;-33.888;151.150;2023-03-14T06:30:18;15.32;;;2.63;;
44046;SDS011;29713;-33.888;151.150;2023-03-14T06:32:45;11.63;;;2.67;;
44046;SDS011;29713;-33.888;151.150;2023-03-14T06:35:13;11.55;;;3.00;;
44046;SDS011;29713;-33.888;151.150;2023-03-14T06:37:40;11.32;;;2.88;;
44046;SDS011;29713;-33.888;151.150;2023-03-14T06:40:08;14.73;;;3.17;;
44046;SDS011;29713;-33.888;151.150;2023-03-14T06:42:38;12.32;;;2.78;;
44046;SDS011;29713;-33.888;151.150;2023-03-14T06:45:05;9.68;;;3.03;;
44046;SDS011;29713;-33.888;151.150;2023-03-14T06:47:33;11.00;;;3.17;;
44046;SDS011;29713;-33.888;151.150;2023-03-14T06:50:01;13.20;;;3.20;;
44046;SDS011;29713;-33.888;151.150;2023-03-14T06:52:28;13.95;;;3.05;;
44046;SDS011;29713;-33.888;151.150;2023-03-14T06:54:56;15.35;;;3.08;;
44046;SDS011;29713;-33.888;151.150;2023-03-14T06:57:23;14.70;;;2.95;;
44046;SDS011;29713;-33.888;151.150;2023-03-14T06:59:50;11.32;;;2.90;;
44046;SDS011;29713;-33.888;151.150;2023-03-14T07:02:18;12.30;;;3.17;;
44046;SDS011;29713;-33.888;151.150;2023-03-14T07:04:46;15.60;;;2.80;;
44046;SDS011;29713;-33.888;151.150;2023-03-14T07:07:13;10.68;;;2.63;;
44046;SDS011;29713;-33.888;151.150;2023-03-14T07:09:42;13.63;;;3.20;;
44046;SDS011;29713;-33.888;151.150;2023-03-14T07:12:09;15.10;;;3.05;;
44046;SDS011;29713;-33.888;151.150;2023-03-14T07:14:36;16.55;;;2.90;;
44046;SDS011;29713;-33.888;151.150;2023-03-14T07:17:03;12.80;;;2.75;;
44046;SDS011;29713;-33.888;151.150;2023-03-14T07:19:31;13.95;;;3.22;;
44046;SDS011;29713;-33.888;151.150;2023-03-14T07:21:58;11.32;;;2.53;;
44046;SDS011;29713;-33.888;151.150;2023-03-14T07:24:25;11.60;;;3.30;;
44046;SDS011;29713;-33.888;151.150;2023-03-14T07:26:53;11.63;;;3.03;;
44046;SDS011;29713;-33.888;151.150;2023-03-14T07:29:20;12.48;;;2.63;;
44046;SDS011;29713;-33.888;151.150;2023-03-14T07:31:47;16.70;;;3.30;;
44046;SDS011;29713;-33.888;151.150;2023-03-14T07:34:15;8.63;;;2.78;;
44046;SDS011;29713;-33.888;151.150;2023-03-14T07:36:42;8.52;;;2.35;;
44046;SDS011;29713;-33.888;151.150;2023-03-14T07:39:10;11.23;;;2.65;;
44046;SDS011;29713;-33.888;151.150;2023-03-14T07:41:37;10.63;;;2.88;;
44046;SDS011;29713;-33.888;151.150;2023-03-14T07:44:04;9.90;;;3.38;;
44046;SDS011;29713;-33.888;151.150;2023-03-14T07:46:32;7.35;;;2.40;;
44046;SDS011;29713;-33.888;151.150;2023-03-14T07:48:59;10.35;;;2.42;;
44046;SDS011;29713;-33.888;151.150;2023-03-14T07:51:27;5.05;;;1.50;;
44046;SDS011;29713;-33.888;151.150;2023-03-14T07:53:54;2.70;;;1.20;;
44046;SDS011;29713;-33.888;151.150;2023-03-14T07:56:21;4.53;;;1.70;;
44046;SDS011;29713;-33.888;151.150;2023-03-14T07:58:49;4.85;;;1.63;;
44046;SDS011;29713;-33.888;151.150;2023-03-14T08:01:16;5.90;;;1.67;;
44046;SDS011;29713;-33.888;151.150;2023-03-14T08:03:43;7.10;;;1.88;;
44046;SDS011;29713;-33.888;151.150;2023-03-14T08:06:11;7.88;;;2.40;;
44046;SDS011;29713;-33.888;151.150;2023-03-14T08:08:38;6.28;;;1.58;;
44046;SDS011;29713;-33.888;151.150;2023-03-14T08:11:06;7.30;;;2.15;;
44046;SDS011;29713;-33.888;151.150;2023-03-14T08:13:34;6.57;;;1.90;;
44046;SDS011;29713;-33.888;151.150;2023-03-14T08:16:03;10.57;;;2.25;;
44046;SDS011;29713;-33.888;151.150;2023-03-14T08:18:31;8.32;;;1.92;;
44046;SDS011;29713;-33.888;151.150;2023-03-14T08:20:58;6.95;;;2.10;;
44046;SDS011;29713;-33.888;151.150;2023-03-14T08:23:26;6.15;;;1.80;;
44046;SDS011;29713;-33.888;151.150;2023-03-14T08:25:53;5.32;;;2.30;;
44046;SDS011;29713;-33.888;151.150;2023-03-14T08:28:20;8.68;;;4.35;;
44046;SDS011;29713;-33.888;151.150;2023-03-14T08:30:48;8.57;;;3.60;;
44046;SDS011;29713;-33.888;151.150;2023-03-14T08:33:15;8.57;;;3.50;;
44046;SDS011;29713;-33.888;151.150;2023-03-14T08:35:42;10.43;;;2.88;;
44046;SDS011;29713;-33.888;151.150;2023-03-14T08:38:10;11.98;;;3.88;;
44046;SDS011;29713;-33.888;151.150;2023-03-14T08:40:37;10.05;;;3.08;;
44046;SDS011;29713;-33.888;151.150;2023-03-14T08:43:04;6.75;;;3.10;;
44046;SDS011;29713;-33.888;151.150;2023-03-14T08:45:32;7.75;;;3.08;;
44046;SDS011;29713;-33.888;151.150;2023-03-14T08:47:59;7.78;;;2.53;;
44046;SDS011;29713;-33.888;151.150;2023-03-14T08:50:26;7.75;;;2.40;;
44046;SDS011;29713;-33.888;151.150;2023-03-14T08:52:53;8.45;;;2.38;;
44046;SDS011;29713;-33.888;151.150;2023-03-14T08:55:23;8.25;;;2.85;;
44046;SDS011;29713;-33.888;151.150;2023-03-14T08:57:52;8.77;;;3.10;;
44046;SDS011;29713;-33.888;151.150;2023-03-14T09:00:20;11.10;;;3.08;;
44046;SDS011;29713;-33.888;151.150;2023-03-14T09:02:47;10.27;;;3.17;;
44046;SDS011;29713;-33.888;151.150;2023-03-14T09:05:15;7.57;;;2.97;;
44046;SDS011;29713;-33.888;151.150;2023-03-14T09:07:42;10.80;;;3.78;;
44046;SDS011;29713;-33.888;151.150;2023-03-14T09:10:10;10.27;;;3.58;;
44046;SDS011;29713;-33.888;151.150;2023-03-14T09:12:37;11.93;;;4.07;;
44046;SDS011;29713;-33.888;151.150;2023-03-14T09:15:05;12.13;;;4.97;;
44046;SDS011;29713;-33.888;151.150;2023-03-14T09:17:33;10.45;;;4.22;;
44046;SDS011;29713;-33.888;151.150;2023-03-14T09:20:01;9.30;;;4.18;;
44046;SDS011;29713;-33.888;151.150;2023-03-14T09:22:32;12.27;;;4.28;;
44046;SDS011;29713;-33.888;151.150;2023-03-14T09:25:02;10.95;;;4.38;;
44046;SDS011;29713;-33.888;151.150;2023-03-14T09:27:30;11.77;;;4.22;;
44046;SDS011;29713;-33.888;151.150;2023-03-14T09:29:57;9.57;;;3.90;;
44046;SDS011;29713;-33.888;151.150;2023-03-14T09:32:24;10.35;;;3.92;;
44046;SDS011;29713;-33.888;151.150;2023-03-14T09:34:52;10.75;;;3.95;;
44046;SDS011;29713;-33.888;151.150;2023-03-14T09:37:19;8.63;;;3.45;;
44046;SDS011;29713;-33.888;151.150;2023-03-14T09:39:46;7.85;;;3.58;;
44046;SDS011;29713;-33.888;151.150;2023-03-14T09:42:18;8.77;;;3.20;;
44046;SDS011;29713;-33.888;151.150;2023-03-14T09:44:59;13.63;;;3.95;;
44046;SDS011;29713;-33.888;151.150;2023-03-14T09:47:30;9.35;;;3.50;;
44046;SDS011;29713;-33.888;151.150;2023-03-14T09:49:59;9.45;;;3.90;;
44046;SDS011;29713;-33.888;151.150;2023-03-14T09:52:33;13.38;;;4.18;;
44046;SDS011;29713;-33.888;151.150;2023-03-14T09:55:05;12.50;;;4.07;;
44046;SDS011;29713;-33.888;151.150;2023-03-14T09:57:44;10.10;;;3.60;;
44046;SDS011;29713;-33.888;151.150;2023-03-14T10:00:15;6.75;;;3.45;;
44046;SDS011;29713;-33.888;151.150;2023-03-14T10:03:00;9.35;;;3.42;;
44046;SDS011;29713;-33.888;151.150;2023-03-14T10:05:27;8.75;;;3.10;;
44046;SDS011;29713;-33.888;151.150;2023-03-14T10:07:55;14.30;;;4.18;;
44046;SDS011;29713;-33.888;151.150;2023-03-14T10:10:24;8.68;;;2.88;;
44046;SDS011;29713;-33.888;151.150;2023-03-14T10:12:57;8.55;;;3.17;;
44046;SDS011;29713;-33.888;151.150;2023-03-14T10:15:27;11.07;;;3.40;;
44046;SDS011;29713;-33.888;151.150;2023-03-14T10:18:00;14.02;;;3.58;;
44046;SDS011;29713;-33.888;151.150;2023-03-14T10:25:42;11.05;;;3.72;;
44046;SDS011;29713;-33.888;151.150;2023-03-14T10:28:31;7.75;;;3.70;;
44046;SDS011;29713;-33.888;151.150;2023-03-14T10:31:00;9.93;;;3.30;;
44046;SDS011;29713;-33.888;151.150;2023-03-14T10:33:29;9.45;;;3.42;;
44046;SDS011;29713;-33.888;151.150;2023-03-14T10:38:28;13.32;;;3.70;;
44046;SDS011;29713;-33.888;151.150;2023-03-14T10:41:00;9.00;;;3.80;;
44046;SDS011;29713;-33.888;151.150;2023-03-14T10:43:33;12.18;;;3.65;;
44046;SDS011;29713;-33.888;151.150;2023-03-14T10:46:23;8.82;;;3.28;;
44046;SDS011;29713;-33.888;151.150;2023-03-14T10:48:50;13.18;;;3.85;;
44046;SDS011;29713;-33.888;151.150;2023-03-14T10:51:22;10.95;;;3.17;;
44046;SDS011;29713;-33.888;151.150;2023-03-14T10:54:04;11.55;;;3.70;;
44046;SDS011;29713;-33.888;151.150;2023-03-14T10:56:40;7.00;;;2.78;;
44046;SDS011;29713;-33.888;151.150;2023-03-14T10:59:11;11.27;;;3.03;;
44046;SDS011;29713;-33.888;151.150;2023-03-14T11:01:55;12.30;;;3.28;;
44046;SDS011;29713;-33.888;151.150;2023-03-14T11:07:40;13.02;;;3.10;;
44046;SDS011;29713;-33.888;151.150;2023-03-14T11:26:53;11.70;;;2.80;;
44046;SDS011;29713;-33.888;151.150;2023-03-14T11:32:32;11.70;;;2.85;;
44046;SDS011;29713;-33.888;151.150;2023-03-14T11:35:17;6.32;;;2.20;;
44046;SDS011;29713;-33.888;151.150;2023-03-14T11:40:57;8.50;;;2.80;;
44046;SDS011;29713;-33.888;151.150;2023-03-14T11:43:26;5.18;;;2.30;;
44046;SDS011;29713;-33.888;151.150;2023-03-14T11:45:58;11.15;;;2.85;;
44046;SDS011;29713;-33.888;151.150;2023-03-14T11:51:29;8.07;;;2.65;;
44046;SDS011;29713;-33.888;151.150;2023-03-14T11:56:44;9.70;;;2.10;;
44046;SDS011;29713;-33.888;151.150;2023-03-14T11:59:21;8.40;;;2.55;;
44046;SDS011;29713;-33.888;151.150;2023-03-14T12:10:39;6.22;;;2.42;;
44046;SDS011;29713;-33.888;151.150;2023-03-14T12:13:11;9.05;;;2.55;;
44046;SDS011;29713;-33.888;151.150;2023-03-14T12:15:41;10.23;;;3.10;;
44046;SDS011;29713;-33.888;151.150;2023-03-14T12:18:36;11.63;;;2.80;;
44046;SDS011;29713;-33.888;151.150;2023-03-14T12:21:07;13.60;;;2.80;;
44046;SDS011;29713;-33.888;151.150;2023-03-14T12:23:49;9.20;;;2.70;;
44046;SDS011;29713;-33.888;151.150;2023-03-14T12:26:20;5.35;;;2.35;;
44046;SDS011;29713;-33.888;151.150;2023-03-14T12:31:40;8.40;;;2.38;;
44046;SDS011;29713;-33.888;151.150;2023-03-14T12:39:25;9.65;;;2.85;;
44046;SDS011;29713;-33.888;151.150;2023-03-14T12:47:56;9.95;;;2.90;;
44046;SDS011;29713;-33.888;151.150;2023-03-14T12:50:38;7.68;;;2.60;;
44046;SDS011;29713;-33.888;151.150;2023-03-14T12:53:21;12.30;;;2.50;;
44046;SDS011;29713;-33.888;151.150;2023-03-14T12:55:57;9.98;;;3.20;;
44046;SDS011;29713;-33.888;151.150;2023-03-14T13:01:16;9.98;;;2.80;;
44046;SDS011;29713;-33.888;151.150;2023-03-14T13:07:02;7.57;;;2.45;;
44046;SDS011;29713;-33.888;151.150;2023-03-14T13:12:00;7.65;;;2.17;;
44046;SDS011;29713;-33.888;151.150;2023-03-14T13:14:44;6.25;;;2.22;;
44046;SDS011;29713;-33.888;151.150;2023-03-14T13:17:14;9.85;;;2.80;;
44046;SDS011;29713;-33.888;151.150;2023-03-14T13:19:48;10.55;;;2.90;;
44046;SDS011;29713;-33.888;151.150;2023-03-14T13:22:28;7.45;;;2.50;;
44046;SDS011;29713;-33.888;151.150;2023-03-14T13:24:59;6.03;;;2.35;;
44046;SDS011;29713;-33.888;151.150;2023-03-14T13:27:30;10.73;;;3.10;;
44046;SDS011;29713;-33.888;151.150;2023-03-14T13:30:04;8.93;;;2.85;;
44046;SDS011;29713;-33.888;151.150;2023-03-14T13:32:41;9.98;;;2.40;;
44046;SDS011;29713;-33.888;151.150;2023-03-14T13:38:00;6.30;;;3.00;;
44046;SDS011;29713;-33.888;151.150;2023-03-14T13:40:32;4.72;;;2.03;;
44046;SDS011;29713;-33.888;151.150;2023-03-14T13:48:19;6.88;;;2.72;;
44046;SDS011;29713;-33.888;151.150;2023-03-14T13:50:50;8.85;;;2.53;;
44046;SDS011;29713;-33.888;151.150;2023-03-14T13:53:20;9.45;;;2.88;;
44046;SDS011;29713;-33.888;151.150;2023-03-14T13:55:48;9.05;;;2.42;;
44046;SDS011;29713;-33.888;151.150;2023-03-14T13:58:20;9.40;;;2.58;;
44046;SDS011;29713;-33.888;151.150;2023-03-14T14:00:55;6.93;;;2.40;;
44046;SDS011;29713;-33.888;151.150;2023-03-14T14:03:53;9.02;;;2.60;;
44046;SDS011;29713;-33.888;151.150;2023-03-14T14:06:30;6.80;;;2.53;;
44046;SDS011;29713;-33.888;151.150;2023-03-14T14:09:14;7.13;;;2.80;;
44046;SDS011;29713;-33.888;151.150;2023-03-14T14:14:38;9.98;;;2.30;;
44046;SDS011;29713;-33.888;151.150;2023-03-14T14:17:32;5.60;;;2.55;;
44046;SDS011;29713;-33.888;151.150;2023-03-14T14:20:07;5.13;;;2.50;;
44046;SDS011;29713;-33.888;151.150;2023-03-14T14:22:47;8.48;;;2.85;;
44046;SDS011;29713;-33.888;151.150;2023-03-14T14:25:15;7.53;;;2.50;;
44046;SDS011;29713;-33.888;151.150;2023-03-14T14:27:44;6.13;;;2.53;;
44046;SDS011;29713;-33.888;151.150;2023-03-14T14:32:47;6.75;;;2.30;;
44046;SDS011;29713;-33.888;151.150;2023-03-14T14:36:16;6.82;;;2.53;;
44046;SDS011;29713;-33.888;151.150;2023-03-14T14:38:37;8.20;;;2.50;;
44046;SDS011;29713;-33.888;151.150;2023-03-14T14:41:04;4.45;;;2.10;;
44046;SDS011;29713;-33.888;151.150;2023-03-14T14:43:34;7.20;;;2.42;;
44046;SDS011;29713;-33.888;151.150;2023-03-14T14:46:06;4.63;;;2.33;;
44046;SDS011;29713;-33.888;151.150;2023-03-14T14:48:36;7.85;;;2.60;;
44046;SDS011;29713;-33.888;151.150;2023-03-14T14:51:05;8.18;;;2.85;;
44046;SDS011;29713;-33.888;151.150;2023-03-14T14:53:38;6.60;;;2.38;;
44046;SDS011;29713;-33.888;151.150;2023-03-14T14:56:13;5.57;;;2.25;;
44046;SDS011;29713;-33.888;151.150;2023-03-14T14:58:48;9.98;;;2.72;;
44046;SDS011;29713;-33.888;151.150;2023-03-14T15:03:46;8.68;;;2.40;;
44046;SDS011;29713;-33.888;151.150;2023-03-14T15:06:16;8.77;;;2.72;;
44046;SDS011;29713;-33.888;151.150;2023-03-14T15:08:45;5.95;;;2.45;;
44046;SDS011;29713;-33.888;151.150;2023-03-14T15:11:21;8.60;;;2.90;;
44046;SDS011;29713;-33.888;151.150;2023-03-14T15:13:53;9.15;;;2.65;;
44046;SDS011;29713;-33.888;151.150;2023-03-14T15:16:25;8.65;;;3.25;;
44046;SDS011;29713;-33.888;151.150;2023-03-14T15:18:56;12.57;;;2.90;;
44046;SDS011;29713;-33.888;151.150;2023-03-14T15:21:26;8.20;;;2.72;;
44046;SDS011;29713;-33.888;151.150;2023-03-14T15:23:54;8.18;;;3.25;;
44046;SDS011;29713;-33.888;151.150;2023-03-14T15:26:22;7.82;;;2.90;;
44046;SDS011;29713;-33.888;151.150;2023-03-14T15:28:51;8.13;;;3.28;;
44046;SDS011;29713;-33.888;151.150;2023-03-14T15:31:19;5.68;;;3.05;;
44046;SDS011;29713;-33.888;151.150;2023-03-14T15:33:47;6.00;;;2.95;;
44046;SDS011;29713;-33.888;151.150;2023-03-14T15:36:28;8.20;;;3.67;;
44046;SDS011;29713;-33.888;151.150;2023-03-14T15:38:58;8.88;;;4.22;;
44046;SDS011;29713;-33.888;151.150;2023-03-14T15:41:27;10.27;;;4.25;;
44046;SDS011;29713;-33.888;151.150;2023-03-14T15:43:54;8.68;;;4.32;;
44046;SDS011;29713;-33.888;151.150;2023-03-14T15:46:22;14.80;;;5.63;;
44046;SDS011;29713;-33.888;151.150;2023-03-14T15:48:50;10.30;;;4.47;;
44046;SDS011;29713;-33.888;151.150;2023-03-14T15:51:18;9.45;;;4.53;;
44046;SDS011;29713;-33.888;151.150;2023-03-14T15:53:45;14.85;;;5.28;;
44046;SDS011;29713;-33.888;151.150;2023-03-14T15:56:14;9.23;;;4.88;;
44046;SDS011;29713;-33.888;151.150;2023-03-14T15:58:43;9.77;;;5.25;;